Time;durP1;ratioP1;P1;durP2;ratioP2;P2;SDS_P1;SDS_P2;PMS_P1;PMS_P2;Temp;Humidity;BMP_temperature;BMP_pressure;BME280_temperature;BME280_humidity;BME280_pressure;Samples;Min_cycle;Max_cycle;Signal;HPM_P1;HPM_P2
2022/01/03 00:01:22;;;;;;;4.80;4.40;;;;;;;8.06;68.80;93981.13;1596664;89;20986;-50
2022/01/03 00:03:49;;;;;;;5.50;5.00;;;;;;;8.23;68.28;93991.42;1596261;89;21099;-50
2022/01/03 00:06:19;;;;;;;4.10;3.80;;;;;;;8.37;67.70;94011.43;1593135;89;21030;-51
2022/01/03 00:08:45;;;;;;;4.03;3.72;;;;;;;8.50;67.24;94031.88;1595465;89;21053;-48
2022/01/03 00:11:19;;;;;;;5.83;4.20;;;;;;;8.63;66.70;94033.30;1596545;90;21101;-49
2022/01/03 00:13:52;;;;;;;4.45;4.12;;;;;;;8.80;66.06;94027.72;1597035;89;21043;-49
2022/01/03 00:16:23;;;;;;;4.67;3.77;;;;;;;8.92;65.81;94028.22;1597027;89;21167;-48
2022/01/03 00:18:51;;;;;;;3.75;3.45;;;;;;;8.94;65.13;93999.72;1596530;90;21003;-48
2022/01/03 00:21:23;;;;;;;4.92;4.10;;;;;;;8.99;64.98;94014.20;1596357;89;21148;-50
2022/01/03 00:23:57;;;;;;;5.58;4.50;;;;;;;9.02;64.74;94003.69;1596790;90;21030;-49
2022/01/03 00:26:26;;;;;;;5.58;4.90;;;;;;;9.00;64.77;94000.64;1595781;89;21081;-49
2022/01/03 00:29:19;;;;;;;8.25;4.97;;;;;;;8.95;64.79;94008.11;1589483;90;21178;-48
2022/01/03 00:31:46;;;;;;;5.78;4.75;;;;;;;8.85;64.97;93988.75;1596576;90;21200;-50
2022/01/03 00:34:17;;;;;;;5.45;4.70;;;;;;;8.73;65.33;94000.59;1596542;90;21101;-49
2022/01/03 00:36:45;;;;;;;5.10;4.60;;;;;;;8.63;65.65;94005.13;1574100;89;21081;-50
2022/01/03 00:39:12;;;;;;;5.30;4.55;;;;;;;8.59;65.83;94006.63;1596565;90;21014;-48
2022/01/03 00:41:43;;;;;;;6.25;5.12;;;;;;;8.55;66.05;94002.50;1595639;90;21458;-50
2022/01/03 00:44:10;;;;;;;5.53;4.67;;;;;;;8.51;66.24;94008.73;1596726;89;20982;-49
2022/01/03 00:46:36;;;;;;;6.60;5.20;;;;;;;8.49;66.35;94024.28;1596153;89;21058;-48
2022/01/03 00:49:05;;;;;;;6.78;5.78;;;;;;;8.48;66.42;94035.09;1596460;89;21090;-49
2022/01/03 00:51:37;;;;;;;8.40;6.08;;;;;;;8.46;66.58;94049.83;1595722;90;21121;-48
2022/01/03 00:54:08;;;;;;;7.12;6.12;;;;;;;8.44;66.62;94062.47;1596605;90;21323;-48
2022/01/03 00:56:43;;;;;;;6.33;5.42;;;;;;;8.38;66.75;94057.39;1596606;89;21073;-48
2022/01/03 00:59:15;;;;;;;6.40;5.42;;;;;;;8.38;66.80;94050.55;1594296;90;21507;-49
2022/01/03 01:01:48;;;;;;;6.08;4.92;;;;;;;8.39;66.85;94056.18;1586825;89;21059;-49
2022/01/03 01:04:16;;;;;;;6.33;5.10;;;;;;;8.42;66.85;94060.17;1590738;90;21054;-49
2022/01/03 01:06:46;;;;;;;6.50;4.65;;;;;;;8.46;66.85;94044.34;1590294;89;21156;-49
2022/01/03 01:09:14;;;;;;;6.08;5.15;;;;;;;8.52;66.82;94050.01;1590366;89;21116;-49
2022/01/03 01:11:44;;;;;;;5.22;4.72;;;;;;;8.58;66.69;94057.20;1596729;89;20994;-49
2022/01/03 01:14:13;;;;;;;6.28;4.85;;;;;;;8.63;66.65;94048.37;1596679;89;21003;-49
2022/01/03 01:16:45;;;;;;;8.48;5.97;;;;;;;8.65;66.51;94036.34;1596171;89;21034;-48
2022/01/03 01:19:12;;;;;;;5.30;4.70;;;;;;;8.67;66.41;94024.34;1596713;89;21167;-49
2022/01/03 01:21:41;;;;;;;6.10;5.10;;;;;;;8.63;66.41;94016.10;1596620;89;21104;-49
2022/01/03 01:24:08;;;;;;;7.60;6.20;;;;;;;8.57;66.57;94036.48;1596753;89;21033;-48
2022/01/03 01:29:24;;;;;;;5.75;5.25;;;;;;;8.54;66.73;94019.57;1589979;89;20986;-48
2022/01/03 01:31:52;;;;;;;16.55;15.03;;;;;;;8.56;66.78;94003.44;1590496;89;21116;-49
2022/01/03 01:34:26;;;;;;;8.30;7.50;;;;;;;8.57;66.84;94004.95;1590197;89;21058;-48
2022/01/03 01:36:58;;;;;;;13.40;12.10;;;;;;;8.56;66.84;94007.55;1596378;89;21352;-49
2022/01/03 01:39:29;;;;;;;63.90;57.88;;;;;;;8.53;66.92;94030.38;1588617;89;21038;-49
2022/01/03 01:41:59;;;;;;;19.05;17.52;;;;;;;8.50;67.12;94042.25;1596997;89;21041;-49
2022/01/03 01:44:27;;;;;;;23.00;21.00;;;;;;;8.46;67.31;94036.12;1596618;88;21158;-49
2022/01/03 01:46:57;;;;;;;21.55;19.62;;;;;;;8.47;67.31;94029.42;1596699;89;21006;-49
2022/01/03 01:49:26;;;;;;;8.10;7.30;;;;;;;8.44;67.45;94024.84;1593652;89;21061;-48
2022/01/03 01:52:01;;;;;;;5.22;4.83;;;;;;;8.46;67.51;94011.45;1590428;90;21038;-49
2022/01/03 01:54:37;;;;;;;4.50;4.15;;;;;;;8.49;67.50;94003.72;1596885;89;21464;-49
2022/01/03 01:57:14;;;;;;;5.22;4.17;;;;;;;8.47;67.60;94023.94;1596893;89;22705;-48
2022/01/03 02:00:09;;;;;;;5.05;4.55;;;;;;;8.46;67.77;94018.30;1591984;89;20967;-48
2022/01/03 02:02:56;;;;;;;5.17;4.67;;;;;;;8.45;67.82;93995.47;1589706;89;21061;-49
2022/01/03 02:05:42;;;;;;;4.55;4.15;;;;;;;8.44;67.79;93999.44;1593621;89;21581;-49
2022/01/03 02:08:17;;;;;;;4.60;4.30;;;;;;;8.41;68.18;94011.30;1590807;89;21035;-49
2022/01/03 02:11:16;;;;;;;5.15;4.33;;;;;;;8.40;68.32;94006.41;1590519;89;21047;-50
2022/01/03 02:13:45;;;;;;;7.60;4.95;;;;;;;8.37;68.45;94003.20;1590394;89;20996;-47
2022/01/03 02:16:13;;;;;;;5.40;4.90;;;;;;;8.32;68.65;93996.95;1590149;90;21010;-48
2022/01/03 02:18:43;;;;;;;6.22;5.70;;;;;;;8.27;69.08;93987.18;1590484;89;21451;-48
2022/01/03 02:21:18;;;;;;;5.40;4.90;;;;;;;8.26;69.26;93979.55;1573847;89;20991;-49
2022/01/03 02:23:47;;;;;;;5.65;4.85;;;;;;;8.27;69.36;93961.90;1573490;90;22039;-49
2022/01/03 02:26:15;;;;;;;5.55;5.08;;;;;;;8.27;69.54;93957.05;1586895;90;21110;-51
2022/01/03 02:28:42;;;;;;;5.97;5.37;;;;;;;8.28;69.40;93951.72;1564249;90;21047;-49
2022/01/03 02:31:09;;;;;;;7.15;6.35;;;;;;;8.26;69.39;93946.67;1590271;89;21010;-48
2022/01/03 02:33:38;;;;;;;10.15;9.10;;;;;;;8.25;69.52;93947.14;1591295;89;21525;-48
2022/01/03 02:36:06;;;;;;;6.20;5.60;;;;;;;8.25;69.52;93936.19;1590563;90;21812;-50
2022/01/03 02:38:33;;;;;;;10.20;9.20;;;;;;;8.26;69.43;93934.97;1590334;89;20974;-50
2022/01/03 02:41:05;;;;;;;11.15;9.03;;;;;;;8.26;69.50;93941.20;1590560;89;20999;-49
2022/01/03 02:43:34;;;;;;;7.75;7.00;;;;;;;8.25;69.54;93932.83;1569101;90;21010;-49
2022/01/03 02:46:03;;;;;;;17.40;14.68;;;;;;;8.25;69.52;93934.19;1590558;89;20999;-49
2022/01/03 02:48:33;;;;;;;13.60;9.53;;;;;;;8.26;69.51;93934.34;1590277;89;21392;-49
2022/01/03 02:50:59;;;;;;;8.38;6.83;;;;;;;8.23;69.60;93933.88;1590614;89;20995;-49
2022/01/03 02:53:26;;;;;;;7.97;6.72;;;;;;;8.20;69.73;93927.95;1590300;89;21077;-49
2022/01/03 02:55:54;;;;;;;8.58;7.65;;;;;;;8.23;70.00;93907.86;1590245;89;21071;-50
2022/01/03 02:58:20;;;;;;;11.08;8.40;;;;;;;8.28;69.83;93889.45;1590366;89;21007;-50
2022/01/03 03:00:49;;;;;;;18.82;16.82;;;;;;;8.27;69.75;93879.70;1590742;89;21121;-49
2022/01/03 03:03:24;;;;;;;12.82;9.90;;;;;;;8.22;69.95;93870.72;1562951;91;21530;-49
2022/01/03 03:05:52;;;;;;;9.43;8.20;;;;;;;8.17;70.10;93856.22;1544414;92;21062;-49
2022/01/03 03:08:19;;;;;;;7.85;7.00;;;;;;;8.12;70.30;93845.88;1543741;93;21059;-49
2022/01/03 03:10:48;;;;;;;9.75;7.97;;;;;;;8.07;70.86;93842.34;1544866;92;21187;-49
2022/01/03 03:13:15;;;;;;;9.55;8.60;;;;;;;8.07;70.96;93823.16;1544542;91;21183;-49
2022/01/03 03:15:42;;;;;;;11.95;9.38;;;;;;;8.08;71.04;93824.69;1543583;93;21034;-49
2022/01/03 03:18:14;;;;;;;12.78;9.33;;;;;;;8.08;71.03;93820.58;1543691;92;21010;-49
2022/01/03 03:20:44;;;;;;;9.93;8.15;;;;;;;8.08;71.02;93830.79;1540148;93;21014;-48
2022/01/03 03:23:14;;;;;;;9.05;8.15;;;;;;;8.05;71.04;93836.55;1543565;93;21059;-48
2022/01/03 03:25:41;;;;;;;10.58;8.13;;;;;;;8.04;71.10;93834.28;1543869;93;21221;-49
2022/01/03 03:28:15;;;;;;;8.45;7.53;;;;;;;8.03;71.31;93845.83;1563322;91;21471;-49
2022/01/03 03:30:49;;;;;;;12.75;11.18;;;;;;;8.05;71.24;93848.88;1557491;91;21080;-49
2022/01/03 03:33:23;;;;;;;10.08;9.03;;;;;;;8.06;71.13;93879.16;1555864;91;21482;-49
2022/01/03 03:35:54;;;;;;;12.00;9.03;;;;;;;8.06;71.24;93877.05;1543983;91;21089;-49
2022/01/03 03:38:25;;;;;;;22.67;17.40;;;;;;;8.08;71.16;93882.20;1543986;93;22030;-48
2022/01/03 03:40:58;;;;;;;9.00;8.10;;;;;;;8.11;71.08;93886.78;1543617;93;20983;-49
2022/01/03 03:43:25;;;;;;;11.83;10.65;;;;;;;8.10;71.26;93888.61;1535188;93;21523;-49
2022/01/03 03:45:55;;;;;;;9.88;8.10;;;;;;;8.12;71.29;93873.27;1544110;92;21503;-49
2022/01/03 03:48:22;;;;;;;9.45;8.53;;;;;;;8.14;71.19;93862.61;1540662;92;21502;-49
2022/01/03 03:50:49;;;;;;;9.95;7.67;;;;;;;8.16;71.21;93844.34;1543869;92;21040;-49
2022/01/03 03:53:16;;;;;;;11.53;8.75;;;;;;;8.15;71.10;93837.34;1543747;92;21087;-48
2022/01/03 03:55:44;;;;;;;11.70;8.80;;;;;;;8.13;71.35;93839.77;1524442;93;20987;-49
2022/01/03 03:58:16;;;;;;;10.60;8.98;;;;;;;8.08;71.38;93846.59;1543832;92;21067;-50
2022/01/03 04:00:47;;;;;;;12.47;10.18;;;;;;;8.06;71.47;93846.29;1549225;91;21624;-49
2022/01/03 04:03:13;;;;;;;14.33;10.45;;;;;;;8.03;72.02;93828.66;1545942;92;21148;-48
2022/01/03 04:05:41;;;;;;;11.60;8.98;;;;;;;8.04;71.95;93821.34;1525757;93;21011;-48
2022/01/03 04:08:10;;;;;;;10.15;8.80;;;;;;;8.04;71.98;93821.34;1543749;92;21014;-49
2022/01/03 04:10:38;;;;;;;10.18;9.18;;;;;;;8.07;72.12;93820.42;1545005;92;21014;-49
2022/01/03 04:13:10;;;;;;;12.00;10.35;;;;;;;8.07;71.94;93813.58;1525848;92;21284;-48
2022/01/03 04:15:38;;;;;;;11.68;9.88;;;;;;;8.04;72.22;93811.00;1543739;93;21194;-48
2022/01/03 04:18:04;;;;;;;10.93;8.98;;;;;;;8.01;72.22;93807.19;1525583;93;21113;-49
2022/01/03 04:20:36;;;;;;;9.73;8.73;;;;;;;8.00;72.53;93813.88;1543748;92;21036;-49
2022/01/03 04:23:03;;;;;;;11.08;9.28;;;;;;;8.04;72.40;93816.48;1541001;92;21521;-49
2022/01/03 04:25:31;;;;;;;10.35;9.40;;;;;;;8.03;72.50;93817.08;1525891;93;21494;-49
2022/01/03 04:27:58;;;;;;;10.55;9.33;;;;;;;8.03;72.64;93818.45;1543762;93;21179;-47
2022/01/03 04:30:29;;;;;;;10.98;8.70;;;;;;;8.03;72.53;93811.59;1525626;93;21053;-49
2022/01/03 04:32:55;;;;;;;10.93;9.10;;;;;;;8.05;72.65;93807.05;1543868;93;21641;-49
2022/01/03 04:35:22;;;;;;;11.28;10.13;;;;;;;8.08;72.67;93800.03;1543786;92;21011;-50
2022/01/03 04:37:50;;;;;;;11.12;10.00;;;;;;;8.11;72.54;93808.71;1547499;92;21047;-49
2022/01/03 04:40:19;;;;;;;10.18;9.08;;;;;;;8.11;72.53;93801.86;1540368;93;21239;-49
2022/01/03 04:42:45;;;;;;;12.28;11.03;;;;;;;8.09;72.63;93815.25;1543783;93;21078;-48
2022/01/03 04:45:15;;;;;;;13.43;10.93;;;;;;;8.07;72.62;93808.10;1545004;92;21069;-49
2022/01/03 04:47:44;;;;;;;10.28;8.98;;;;;;;8.08;72.61;93815.72;1540467;93;21022;-50
2022/01/03 04:50:11;;;;;;;12.05;10.30;;;;;;;8.10;72.16;93782.54;1543853;93;21114;-49
2022/01/03 04:52:38;;;;;;;11.65;9.70;;;;;;;8.14;71.98;93782.40;1543998;92;21564;-49
2022/01/03 04:55:05;;;;;;;10.98;9.58;;;;;;;8.15;71.98;93784.70;1543647;93;21622;-50
2022/01/03 04:57:33;;;;;;;10.85;8.90;;;;;;;8.17;71.85;93771.30;1544004;93;21470;-49
2022/01/03 05:00:00;;;;;;;10.15;8.68;;;;;;;8.18;71.74;93767.97;1543903;93;21063;-49
2022/01/03 05:02:27;;;;;;;14.60;10.40;;;;;;;8.23;71.54;93764.65;1525534;92;21131;-49
2022/01/03 05:04:54;;;;;;;13.85;10.20;;;;;;;8.22;71.43;93757.02;1543838;93;21903;-49
2022/01/03 05:07:22;;;;;;;14.35;10.90;;;;;;;8.19;71.57;93757.94;1544018;93;21497;-48
2022/01/03 05:09:51;;;;;;;12.63;9.65;;;;;;;8.18;71.68;93761.13;1543802;93;21047;-49
2022/01/03 05:12:18;;;;;;;11.83;9.10;;;;;;;8.17;71.75;93755.46;1540955;92;21098;-48
2022/01/03 05:14:45;;;;;;;12.07;9.30;;;;;;;8.17;71.78;93767.79;1543733;93;21062;-50
2022/01/03 05:17:12;;;;;;;12.23;10.10;;;;;;;8.17;71.92;93750.76;1545028;92;21248;-49
2022/01/03 05:19:38;;;;;;;11.97;9.48;;;;;;;8.17;72.02;93759.58;1544863;92;21046;-48
2022/01/03 05:22:05;;;;;;;10.78;8.73;;;;;;;8.17;71.91;93745.88;1545132;92;21554;-48
2022/01/03 05:24:37;;;;;;;9.85;8.15;;;;;;;8.15;71.79;93742.83;1543728;93;21043;-48
2022/01/03 05:27:08;;;;;;;11.40;8.33;;;;;;;8.13;71.44;93747.41;1525926;92;21145;-48
2022/01/03 05:29:34;;;;;;;10.13;8.95;;;;;;;8.19;71.14;93750.31;1543710;92;21186;-49
2022/01/03 05:32:03;;;;;;;11.12;9.73;;;;;;;8.26;70.91;93737.08;1540459;93;21617;-48
2022/01/03 05:34:31;;;;;;;13.32;10.80;;;;;;;8.29;70.82;93744.38;1543801;92;21026;-48
2022/01/03 05:37:00;;;;;;;12.10;9.93;;;;;;;8.27;70.96;93733.75;1545215;92;21523;-49
2022/01/03 05:39:27;;;;;;;9.63;8.63;;;;;;;8.23;71.04;93746.84;1543721;93;21071;-49
2022/01/03 05:41:54;;;;;;;12.00;9.60;;;;;;;8.24;71.02;93754.59;1543880;92;21881;-48
2022/01/03 05:44:21;;;;;;;12.35;10.05;;;;;;;8.23;71.12;93746.84;1525475;93;21070;-49
2022/01/03 05:46:51;;;;;;;11.18;10.08;;;;;;;8.20;71.25;93758.09;1540718;93;21030;-49
2022/01/03 05:49:18;;;;;;;11.35;10.10;;;;;;;8.21;71.21;93758.87;1546141;92;21038;-49
2022/01/03 05:51:46;;;;;;;11.25;9.90;;;;;;;8.22;71.42;93751.55;1543704;92;21557;-49
2022/01/03 05:54:13;;;;;;;11.57;9.85;;;;;;;8.22;71.49;93765.24;1543696;93;21183;-49
2022/01/03 05:56:40;;;;;;;19.62;14.00;;;;;;;8.22;71.34;93750.17;1543737;93;20979;-49
2022/01/03 05:59:08;;;;;;;61.02;37.90;;;;;;;8.21;71.35;93752.77;1543712;93;21018;-49
2022/01/03 06:01:36;;;;;;;19.90;15.58;;;;;;;8.20;71.37;93759.46;1543736;91;21158;-49
2022/01/03 06:04:20;;;;;;;13.78;12.28;;;;;;;8.18;71.53;93748.20;1543719;93;21542;-49
2022/01/03 06:06:56;;;;;;;13.15;11.55;;;;;;;8.17;71.59;93738.43;1547698;91;21272;-49
2022/01/03 06:09:33;;;;;;;14.43;11.97;;;;;;;8.15;71.62;93739.50;1543622;93;21014;-49
2022/01/03 06:12:02;;;;;;;15.70;11.95;;;;;;;8.12;71.70;93722.61;1543473;92;21015;-49
2022/01/03 06:14:32;;;;;;;15.20;11.63;;;;;;;8.14;71.70;93729.77;1543783;93;21498;-49
2022/01/03 06:17:02;;;;;;;14.15;10.93;;;;;;;8.13;71.69;93715.91;1543432;93;21506;-50
2022/01/03 06:19:29;;;;;;;13.03;10.95;;;;;;;8.12;71.78;93716.36;1525628;93;22105;-49
2022/01/03 06:21:57;;;;;;;11.20;9.50;;;;;;;8.11;71.76;93721.06;1544795;93;21034;-49
2022/01/03 06:24:26;;;;;;;13.83;9.80;;;;;;;8.11;71.78;93715.58;1543751;93;21148;-50
2022/01/03 06:26:55;;;;;;;15.45;12.05;;;;;;;8.13;71.65;93713.77;1543918;92;21561;-49
2022/01/03 06:29:22;;;;;;;15.65;11.00;;;;;;;8.13;71.60;93703.59;1543680;93;21014;-49
2022/01/03 06:31:51;;;;;;;15.20;11.20;;;;;;;8.15;71.35;93691.56;1543862;93;21980;-49
2022/01/03 06:34:18;;;;;;;12.60;10.65;;;;;;;8.19;71.23;93699.64;1543687;92;21036;-50
2022/01/03 06:36:46;;;;;;;12.25;10.03;;;;;;;8.19;71.12;93685.34;1543608;93;21055;-48
2022/01/03 06:39:13;;;;;;;18.98;11.45;;;;;;;8.21;71.00;93676.06;1543606;92;21063;-49
2022/01/03 06:41:41;;;;;;;13.55;10.90;;;;;;;8.25;70.83;93695.09;1543650;93;21014;-50
2022/01/03 06:44:12;;;;;;;12.53;10.20;;;;;;;8.28;70.69;93693.55;1543731;93;21157;-53
2022/01/03 06:46:40;;;;;;;13.87;11.73;;;;;;;8.30;70.51;93689.77;1543894;93;21470;-50
2022/01/03 06:49:13;;;;;;;14.65;12.05;;;;;;;8.29;70.44;93703.28;1544547;92;21083;-50
2022/01/03 06:51:41;;;;;;;39.75;27.07;;;;;;;8.28;70.41;93699.02;1543912;93;21023;-50
2022/01/03 06:54:13;;;;;;;79.32;43.60;;;;;;;8.31;70.19;93712.43;1546888;91;20991;-49
2022/01/03 06:56:43;;;;;;;28.15;18.07;;;;;;;8.31;70.14;93709.09;1543891;91;21245;-49
2022/01/03 06:59:10;;;;;;;32.20;19.75;;;;;;;8.35;69.94;93713.03;1540361;93;21462;-50
2022/01/03 07:01:37;;;;;;;53.85;33.73;;;;;;;8.41;69.76;93705.12;1543627;93;21109;-49
2022/01/03 07:04:04;;;;;;;71.92;41.58;;;;;;;8.47;69.62;93711.50;1543731;93;21550;-49
2022/01/03 07:06:33;;;;;;;57.03;31.85;;;;;;;8.52;69.45;93712.27;1557008;91;21011;-49
2022/01/03 07:09:00;;;;;;;98.47;51.42;;;;;;;8.53;69.13;93706.94;1564279;90;21157;-49
2022/01/03 07:11:28;;;;;;;123.78;61.15;;;;;;;8.55;69.06;93709.98;1602421;88;21070;-48
2022/01/03 07:14:06;;;;;;;84.07;46.02;;;;;;;8.58;68.84;93722.77;1575152;89;21035;-50
2022/01/03 07:19:09;;;;;;;39.98;26.35;;;;;;;8.60;68.29;93716.20;1593092;90;20998;-55
2022/01/03 07:21:36;;;;;;;30.43;23.65;;;;;;;8.62;68.16;93706.91;1612497;87;21744;-48
2022/01/03 07:24:04;;;;;;;27.15;21.50;;;;;;;8.63;67.97;93701.58;1601518;87;20975;-49
2022/01/03 07:26:31;;;;;;;18.02;14.23;;;;;;;8.66;67.92;93708.14;1595481;90;20997;-49
2022/01/03 07:28:58;;;;;;;16.97;13.28;;;;;;;8.70;67.60;93723.22;1595554;90;21529;-48
2022/01/03 07:31:26;;;;;;;26.12;20.72;;;;;;;8.74;67.38;93712.84;1595553;89;21190;-49
2022/01/03 07:33:53;;;;;;;19.60;17.32;;;;;;;8.78;67.30;93727.15;1595425;89;21140;-50
2022/01/03 07:36:22;;;;;;;17.35;12.58;;;;;;;8.81;67.11;93726.84;1595450;90;20979;-50
2022/01/03 07:38:49;;;;;;;26.37;18.62;;;;;;;8.83;66.90;93732.00;1595602;90;21090;-49
2022/01/03 07:41:16;;;;;;;28.50;20.62;;;;;;;8.83;66.81;93736.75;1595446;90;21042;-50
2022/01/03 07:43:44;;;;;;;22.32;17.52;;;;;;;8.80;66.84;93738.41;1595739;90;21023;-49
2022/01/03 07:46:11;;;;;;;23.45;19.87;;;;;;;8.83;66.81;93737.49;1600638;89;21073;-50
2022/01/03 07:48:39;;;;;;;18.85;16.73;;;;;;;8.82;66.77;93741.45;1595313;90;21018;-50
2022/01/03 07:51:08;;;;;;;15.32;12.30;;;;;;;8.81;66.85;93744.67;1595793;89;21049;-52
2022/01/03 07:53:34;;;;;;;13.28;10.78;;;;;;;8.84;66.84;93741.01;1595612;89;21045;-48
2022/01/03 07:56:07;;;;;;;16.45;13.60;;;;;;;8.86;66.89;93747.56;1595854;88;20974;-50
2022/01/03 07:58:33;;;;;;;15.08;11.88;;;;;;;8.85;66.92;93748.79;1589120;87;21296;-51
2022/01/03 08:01:00;;;;;;;17.57;13.22;;;;;;;8.78;67.02;93728.52;1595432;89;21140;-50
2022/01/03 08:03:27;;;;;;;50.45;27.35;;;;;;;8.73;67.18;93755.19;1595612;89;21521;-49
2022/01/03 08:05:56;;;;;;;30.25;18.07;;;;;;;8.69;67.59;93744.22;1595783;89;21033;-49
2022/01/03 08:08:24;;;;;;;21.87;14.10;;;;;;;8.62;67.77;93752.14;1595288;89;21360;-48
2022/01/03 08:10:51;;;;;;;26.95;16.73;;;;;;;8.56;67.96;93748.50;1595602;88;21184;-49
2022/01/03 08:13:18;;;;;;;39.90;31.90;;;;;;;8.52;68.14;93739.68;1595958;89;21010;-50
2022/01/03 08:15:46;;;;;;;31.55;24.32;;;;;;;8.50;68.27;93743.50;1595417;89;21049;-50
2022/01/03 08:18:13;;;;;;;21.07;17.07;;;;;;;8.48;68.39;93745.16;1595809;89;20986;-50
2022/01/03 08:20:40;;;;;;;20.25;16.70;;;;;;;8.44;68.62;93743.19;1595745;88;21597;-50
2022/01/03 08:23:07;;;;;;;21.80;19.00;;;;;;;8.40;68.85;93743.33;1595418;89;21080;-50
2022/01/03 08:25:37;;;;;;;25.23;20.65;;;;;;;8.34;69.11;93743.80;1583544;89;20971;-50
2022/01/03 08:28:06;;;;;;;16.15;12.60;;;;;;;8.31;69.35;93737.87;1595530;89;21103;-49
2022/01/03 08:30:35;;;;;;;15.03;11.22;;;;;;;8.29;69.38;93718.98;1595204;89;21002;-49
2022/01/03 08:33:03;;;;;;;15.60;14.00;;;;;;;8.28;69.22;93725.05;1595832;89;21073;-49
2022/01/03 08:35:30;;;;;;;20.37;15.05;;;;;;;8.29;69.10;93719.72;1595831;88;21784;-50
2022/01/03 08:37:59;;;;;;;20.17;15.20;;;;;;;8.34;69.04;93715.63;1595508;90;21585;-50
2022/01/03 08:40:26;;;;;;;18.00;13.58;;;;;;;8.30;69.21;93711.69;1593814;89;21558;-49
2022/01/03 08:42:53;;;;;;;19.60;16.50;;;;;;;8.25;69.18;93730.08;1595931;90;21073;-49
2022/01/03 08:45:19;;;;;;;15.45;11.57;;;;;;;8.24;69.21;93729.94;1591308;89;21473;-49
2022/01/03 08:47:46;;;;;;;12.47;10.30;;;;;;;8.28;69.03;93751.08;1595348;89;21158;-51
2022/01/03 08:50:15;;;;;;;11.88;9.95;;;;;;;8.33;68.93;93738.17;1594584;90;21560;-50
2022/01/03 08:52:42;;;;;;;13.93;9.93;;;;;;;8.37;68.74;93741.51;1607924;89;20993;-49
2022/01/03 08:55:09;;;;;;;14.15;10.93;;;;;;;8.38;68.69;93729.33;1595598;89;21170;-49
2022/01/03 08:57:38;;;;;;;12.23;9.73;;;;;;;8.37;68.67;93744.25;1595575;89;21062;-50
2022/01/03 09:00:10;;;;;;;14.78;11.48;;;;;;;8.35;68.63;93732.98;1583160;88;21292;-49
2022/01/03 09:02:37;;;;;;;20.70;15.70;;;;;;;8.38;68.61;93732.66;1602091;89;21078;-50
2022/01/03 09:05:05;;;;;;;23.20;14.95;;;;;;;8.38;68.99;93735.41;1596702;89;20986;-50
2022/01/03 09:07:32;;;;;;;25.30;17.40;;;;;;;8.35;69.10;93721.25;1595648;89;21002;-51
2022/01/03 09:09:59;;;;;;;28.20;17.87;;;;;;;8.30;69.29;93718.53;1595747;88;21571;-51
2022/01/03 09:12:26;;;;;;;17.50;14.50;;;;;;;8.22;69.69;93714.56;1592777;88;21930;-49
2022/01/03 09:14:55;;;;;;;16.35;13.22;;;;;;;8.15;70.07;93710.73;1598798;88;21621;-49
2022/01/03 09:17:22;;;;;;;22.00;14.78;;;;;;;8.12;70.26;93690.34;1617064;88;21610;-52
2022/01/03 09:19:52;;;;;;;23.50;16.55;;;;;;;8.14;70.32;93687.90;1617336;87;21080;-51
2022/01/03 09:22:27;;;;;;;22.20;15.85;;;;;;;8.13;70.13;93680.30;1617163;87;21039;-49
2022/01/03 09:30:15;;;;;;;28.65;18.98;;;;;;;8.10;69.95;93675.72;1618018;88;21593;-50
2022/01/03 09:32:43;;;;;;;23.05;16.45;;;;;;;8.12;69.81;93663.72;1617955;87;21011;-49
2022/01/03 09:35:13;;;;;;;21.52;15.83;;;;;;;8.15;69.72;93665.55;1617851;88;20975;-51
2022/01/03 09:37:41;;;;;;;21.77;16.52;;;;;;;8.21;69.61;93667.84;1617998;88;21162;-49
2022/01/03 09:40:09;;;;;;;20.35;15.58;;;;;;;8.26;69.35;93653.52;1595712;88;21023;-50
2022/01/03 09:42:37;;;;;;;26.27;18.30;;;;;;;8.30;69.00;93663.73;1600163;88;21031;-50
2022/01/03 09:45:07;;;;;;;29.15;17.90;;;;;;;8.35;68.74;93665.08;1618113;87;20995;-50
2022/01/03 09:47:42;;;;;;;28.05;17.57;;;;;;;8.43;68.67;93671.78;1618041;88;20995;-48
2022/01/03 09:50:11;;;;;;;37.45;23.20;;;;;;;8.52;68.37;93672.53;1617240;88;21141;-50
2022/01/03 09:52:37;;;;;;;29.40;19.12;;;;;;;8.57;68.21;93680.13;1617864;88;21043;-49
2022/01/03 09:55:06;;;;;;;34.43;22.17;;;;;;;8.65;67.93;93678.58;1618020;88;21047;-49
2022/01/03 09:57:36;;;;;;;25.15;17.15;;;;;;;8.75;67.64;93677.94;1595967;88;20987;-50
2022/01/03 10:00:05;;;;;;;29.37;19.85;;;;;;;8.84;66.97;93682.80;1617831;88;21007;-49
2022/01/03 10:02:33;;;;;;;24.57;16.15;;;;;;;8.90;66.59;93676.86;1600023;87;21163;-50
2022/01/03 10:05:00;;;;;;;24.67;17.52;;;;;;;8.94;66.16;93677.45;1618179;87;21467;-49
2022/01/03 10:07:27;;;;;;;19.87;14.20;;;;;;;8.94;65.27;93681.56;1617649;88;21079;-49
2022/01/03 10:09:54;;;;;;;24.10;16.32;;;;;;;8.93;64.87;93674.55;1618083;88;21000;-48
2022/01/03 10:12:21;;;;;;;26.62;14.70;;;;;;;8.96;65.24;93676.37;1618083;88;21015;-51
2022/01/03 10:14:48;;;;;;;26.50;15.55;;;;;;;8.97;65.48;93672.40;1617948;87;21964;-51
2022/01/03 10:17:15;;;;;;;22.27;16.05;;;;;;;8.94;65.90;93676.08;1618081;88;21055;-50
2022/01/03 10:19:56;;;;;;;18.73;13.65;;;;;;;8.90;66.22;93682.34;1617512;88;21016;-51
2022/01/03 10:22:31;;;;;;;16.75;12.95;;;;;;;8.82;66.53;93675.64;1617982;88;21007;-50
2022/01/03 10:25:02;;;;;;;15.35;11.38;;;;;;;8.71;67.29;93687.72;1600072;88;21055;-48
2022/01/03 10:27:47;;;;;;;16.52;12.28;;;;;;;8.57;67.91;93686.98;1617752;88;21208;-48
2022/01/03 10:30:16;;;;;;;15.13;12.60;;;;;;;8.45;68.51;93678.94;1600178;88;21447;-51
2022/01/03 10:32:52;;;;;;;16.87;12.78;;;;;;;8.30;69.18;93662.37;1599948;88;21111;-49
2022/01/03 10:35:20;;;;;;;17.27;13.40;;;;;;;8.21;69.55;93655.52;1596667;88;21547;-51
2022/01/03 10:37:49;;;;;;;18.52;11.63;;;;;;;8.19;69.72;93664.80;1618152;88;21095;-50
2022/01/03 10:40:29;;;;;;;16.95;13.45;;;;;;;8.18;69.93;93681.68;1618011;88;21163;-55
2022/01/03 10:42:59;;;;;;;16.10;13.30;;;;;;;8.17;69.89;93675.42;1617877;88;21623;-50
2022/01/03 10:45:31;;;;;;;20.05;14.07;;;;;;;8.15;69.80;93666.13;1616479;88;21121;-50
2022/01/03 10:48:01;;;;;;;15.65;12.18;;;;;;;8.16;69.71;93658.06;1618008;87;21051;-49
2022/01/03 10:50:31;;;;;;;11.83;10.10;;;;;;;8.19;69.42;93665.40;1618130;88;21130;-49
2022/01/03 10:52:57;;;;;;;12.85;11.12;;;;;;;8.22;69.16;93678.20;1618508;88;21315;-51
2022/01/03 10:55:34;;;;;;;17.55;12.35;;;;;;;8.23;69.03;93665.41;1618116;88;20987;-48
2022/01/03 10:58:07;;;;;;;14.03;11.00;;;;;;;8.18;69.22;93655.06;1600126;88;21027;-51
2022/01/03 11:00:40;;;;;;;15.57;11.53;;;;;;;8.12;69.37;93666.46;1618024;88;21047;-48
2022/01/03 11:05:54;;;;;;;15.10;12.15;;;;;;;8.02;70.01;93655.34;1617876;88;21003;-49
2022/01/03 11:11:13;;;;;;;16.25;12.15;;;;;;;7.98;69.92;93644.38;1617922;88;21101;-51
2022/01/03 11:13:44;;;;;;;18.35;13.08;;;;;;;7.99;69.92;93626.14;1617810;88;20984;-50
2022/01/03 11:16:11;;;;;;;18.20;11.65;;;;;;;8.03;69.81;93617.78;1600036;88;21032;-49
2022/01/03 11:18:44;;;;;;;13.88;10.90;;;;;;;8.05;69.47;93605.13;1599901;88;21148;-50
2022/01/03 11:21:20;;;;;;;12.13;9.93;;;;;;;8.11;69.33;93599.17;1618248;88;21008;-49
2022/01/03 11:24:02;;;;;;;16.15;12.75;;;;;;;8.21;68.40;93597.98;1617288;88;21062;-50
2022/01/03 11:26:33;;;;;;;16.12;12.23;;;;;;;8.28;68.22;93574.38;1617847;88;21026;-48
2022/01/03 11:29:02;;;;;;;22.62;15.98;;;;;;;8.36;67.92;93564.62;1617822;88;21015;-49
2022/01/03 11:31:33;;;;;;;18.02;12.88;;;;;;;8.42;67.76;93556.55;1617663;88;20979;-50
2022/01/03 11:34:02;;;;;;;19.23;14.23;;;;;;;8.42;67.40;93555.17;1617662;88;20999;-49
2022/01/03 11:36:29;;;;;;;16.67;11.40;;;;;;;8.43;67.23;93549.22;1618025;88;21484;-50
2022/01/03 11:38:59;;;;;;;13.22;10.48;;;;;;;8.44;66.64;93552.10;1617800;87;21086;-50
2022/01/03 11:41:27;;;;;;;12.45;8.98;;;;;;;8.49;66.11;93554.84;1618264;88;21106;-50
2022/01/03 11:43:54;;;;;;;10.15;8.00;;;;;;;8.53;65.26;93552.09;1618065;88;21239;-49
2022/01/03 11:46:22;;;;;;;10.40;7.25;;;;;;;8.58;64.54;93551.45;1617829;88;21089;-53
2022/01/03 11:48:51;;;;;;;9.10;7.12;;;;;;;8.58;63.52;93549.33;1617771;88;21039;-51
2022/01/03 11:51:22;;;;;;;8.63;5.85;;;;;;;8.61;63.36;93554.63;1617870;88;21007;-50
2022/01/03 11:53:50;;;;;;;14.20;10.00;;;;;;;8.62;62.97;93549.30;1617547;88;21038;-49
2022/01/03 11:56:20;;;;;;;8.00;6.03;;;;;;;8.64;63.06;93556.44;1618036;88;21073;-50
2022/01/03 12:04:13;;;;;;;11.80;8.05;;;;;;;8.58;63.30;93552.82;1618052;88;21518;-50